Time;durP1;ratioP1;P1;durP2;ratioP2;P2;SDS_P1;SDS_P2;PMS_P1;PMS_P2;Temp;Humidity;BMP_temperature;BMP_pressure;BME280_temperature;BME280_humidity;BME280_pressure;Samples;Min_cycle;Max_cycle;Signal;HPM_P1;HPM_P2
2021/09/24 00:01:15;;;;;;;;;;;;;;;-142.75;92.98;76901.00;5028428;28;19978;-75
2021/09/24 00:03:40;;;;;;;;;;;;;;;-142.75;92.61;76908.88;5029830;28;20354;-77
2021/09/24 00:06:05;;;;;;;;;;;;;;;-142.75;91.96;76904.94;5011531;28;20338;-76
2021/09/24 00:08:31;;;;;;;;;;;;;;;-142.75;92.22;76889.19;5029338;28;19917;-77
2021/09/24 00:10:57;;;;;;;;;;;;;;;-142.75;92.50;76875.41;5044298;28;19913;-77
2021/09/24 00:13:22;;;;;;;;;;;;;;;-142.75;92.47;76873.44;5048979;28;19967;-78
2021/09/24 00:15:47;;;;;;;;;;;;;;;-142.75;92.33;76873.44;5048650;28;20570;-75
2021/09/24 00:18:12;;;;;;;;;;;;;;;-142.75;92.86;76869.50;5048863;28;19913;-76
2021/09/24 00:20:38;;;;;;;;;;;;;;;-142.75;92.89;76877.38;5048749;28;19913;-77
2021/09/24 00:23:03;;;;;;;;;;;;;;;-142.75;92.42;76883.28;5030919;28;19920;-76
2021/09/24 00:25:29;;;;;;;;;;;;;;;-142.75;92.32;76893.13;5048572;28;20274;-78
2021/09/24 00:27:54;;;;;;;;;;;;;;;-142.75;92.75;76906.91;5049043;28;19995;-75
2021/09/24 00:30:20;;;;;;;;;;;;;;;-142.75;93.27;76897.06;5049195;28;19955;-76
2021/09/24 00:32:45;;;;;;;;;;;;;;;-142.75;93.14;76904.94;5048864;28;19917;-76
2021/09/24 00:35:10;;;;;;;;;;;;;;;-142.75;93.20;76920.69;5048393;28;19920;-77
2021/09/24 00:37:36;;;;;;;;;;;;;;;-142.75;93.53;76928.56;5031896;28;19917;-76
2021/09/24 00:40:01;;;;;;;;;;;;;;;-142.75;94.69;76940.38;5034813;28;19920;-77
2021/09/24 00:42:27;;;;;;;;;;;;;;;-142.75;96.12;76944.31;5052286;28;19916;-74
2021/09/24 00:44:52;;;;;;;;;;;;;;;-142.75;97.17;76954.16;5034445;28;20416;-77
2021/09/24 00:47:18;;;;;;;;;;;;;;;-142.75;97.66;76948.25;5034849;28;19912;-77
2021/09/24 00:49:43;;;;;;;;;;;;;;;-142.75;99.18;76940.38;5051995;28;19917;-77
2021/09/24 00:52:09;;;;;;;;;;;;;;;-142.75;99.75;76944.31;5052106;28;20033;-76
2021/09/24 00:54:34;;;;;;;;;;;;;;;-142.75;99.96;76936.44;5034232;28;19920;-76
2021/09/24 00:57:00;;;;;;;;;;;;;;;-142.75;99.76;76930.53;5052200;28;20038;-77
2021/09/24 00:59:25;;;;;;;;;;;;;;;-142.75;99.90;76936.44;5035459;28;19920;-76
2021/09/24 01:01:50;;;;;;;;;;;;;;;-142.75;99.95;76936.44;5052315;28;19916;-76
2021/09/24 01:04:15;;;;;;;;;;;;;;;-142.75;100.00;76932.50;5033916;28;20345;-76
2021/09/24 01:06:41;;;;;;;;;;;;;;;-142.75;100.00;76932.50;5052455;28;20650;-77
2021/09/24 01:09:06;;;;;;;;;;;;;;;-142.75;100.00;76930.53;5051823;28;19917;-77
2021/09/24 01:11:31;;;;;;;;;;;;;;;-142.75;100.00;76928.56;5034167;28;20015;-77
2021/09/24 01:13:57;;;;;;;;;;;;;;;-142.75;100.00;76926.59;5033931;28;19958;-77
2021/09/24 01:16:22;;;;;;;;;;;;;;;-142.75;100.00;76926.59;5034099;28;19916;-76
2021/09/24 01:18:47;;;;;;;;;;;;;;;-142.75;100.00;76926.59;5051825;28;19913;-76
2021/09/24 01:21:13;;;;;;;;;;;;;;;-142.75;100.00;76926.59;5051915;28;20034;-77
2021/09/24 01:23:38;;;;;;;;;;;;;;;-142.75;100.00;76930.53;5051591;28;19913;-77
2021/09/24 01:26:03;;;;;;;;;;;;;;;-142.75;100.00;76940.38;5051649;28;20294;-78
2021/09/24 01:28:29;;;;;;;;;;;;;;;-142.75;100.00;76938.41;5052455;28;20271;-78
2021/09/24 01:30:54;;;;;;;;;;;;;;;-142.75;100.00;76946.28;5052287;28;19995;-77
2021/09/24 01:33:19;;;;;;;;;;;;;;;-142.75;100.00;76936.44;5047166;28;19947;-77
2021/09/24 01:35:44;;;;;;;;;;;;;;;-142.75;100.00;76944.31;5036234;28;20302;-77
2021/09/24 01:38:09;;;;;;;;;;;;;;;-142.75;100.00;76944.31;5033354;28;19913;-75
2021/09/24 01:40:35;;;;;;;;;;;;;;;-142.75;100.00;76946.28;5014374;28;19920;-77
2021/09/24 01:43:00;;;;;;;;;;;;;;;-142.75;100.00;76946.28;5013983;28;20008;-77
2021/09/24 01:45:25;;;;;;;;;;;;;;;-142.75;100.00;76952.19;5031397;28;19917;-77
2021/09/24 01:47:50;;;;;;;;;;;;;;;-142.75;100.00;76944.31;5031474;28;20022;-76
2021/09/24 01:50:16;;;;;;;;;;;;;;;-142.75;100.00;76962.03;5012884;28;19931;-77
2021/09/24 01:52:41;;;;;;;;;;;;;;;-142.75;100.00;76971.88;5031684;28;20015;-79
2021/09/24 01:55:07;;;;;;;;;;;;;;;-142.75;100.00;76958.09;5013535;28;19913;-75
2021/09/24 01:57:33;;;;;;;;;;;;;;;-142.75;100.00;76954.16;5031888;28;19916;-77
2021/09/24 01:59:58;;;;;;;;;;;;;;;-142.75;100.00;76952.19;5032352;28;19935;-78
2021/09/24 02:02:23;;;;;;;;;;;;;;;-142.75;100.00;76940.38;5013474;28;20370;-76
2021/09/24 02:04:48;;;;;;;;;;;;;;;-142.75;100.00;76936.44;5031061;28;20444;-77
2021/09/24 02:07:13;;;;;;;;;;;;;;;-142.75;100.00;76936.44;5013280;28;20004;-76
2021/09/24 02:09:39;;;;;;;;;;;;;;;-142.75;100.00;76944.31;5013455;28;19917;-78
2021/09/24 02:12:04;;;;;;;;;;;;;;;-142.75;100.00;76942.34;5013733;28;19913;-76
2021/09/24 02:14:29;;;;;;;;;;;;;;;-142.75;100.00;76942.34;5015676;28;20024;-77
2021/09/24 02:16:55;;;;;;;;;;;;;;;-142.75;100.00;76932.50;5040349;28;19924;-76
2021/09/24 02:19:20;;;;;;;;;;;;;;;-142.75;100.00;76924.63;5034207;28;19921;-77
2021/09/24 02:21:45;;;;;;;;;;;;;;;-142.75;100.00;76928.56;5032995;28;19916;-75
2021/09/24 02:24:10;;;;;;;;;;;;;;;-142.75;100.00;76926.59;5036876;28;19913;-76
2021/09/24 02:26:36;;;;;;;;;;;;;;;-142.75;100.00;76936.44;5033722;28;19917;-77
2021/09/24 02:29:01;;;;;;;;;;;;;;;-142.75;100.00;76948.25;5020611;28;19963;-77
2021/09/24 02:31:26;;;;;;;;;;;;;;;-142.75;100.00;76940.38;5050921;28;19913;-77
2021/09/24 02:33:51;;;;;;;;;;;;;;;-142.75;100.00;76934.47;5050606;28;19927;-77
2021/09/24 02:36:17;;;;;;;;;;;;;;;-142.75;100.00;76940.38;5032570;28;20073;-76
2021/09/24 02:38:42;;;;;;;;;;;;;;;-142.75;100.00;76922.66;5033607;28;19913;-76
2021/09/24 02:41:07;;;;;;;;;;;;;;;-142.75;100.00;76901.00;5020595;28;19917;-77
2021/09/24 02:43:33;;;;;;;;;;;;;;;-142.75;100.00;76901.00;5013613;28;19913;-77
2021/09/24 02:45:58;;;;;;;;;;;;;;;-142.75;100.00;76910.84;5015863;28;20337;-77
2021/09/24 02:48:23;;;;;;;;;;;;;;;-142.75;100.00;76904.94;5031223;28;20839;-78
2021/09/24 02:50:48;;;;;;;;;;;;;;;-142.75;100.00;76904.94;5012649;28;19956;-78
2021/09/24 02:53:13;;;;;;;;;;;;;;;-142.75;100.00;76902.97;5031148;28;19920;-77
2021/09/24 02:55:39;;;;;;;;;;;;;;;-142.75;100.00;76893.13;5030248;28;19919;-77
2021/09/24 02:58:04;;;;;;;;;;;;;;;-142.75;100.00;76895.09;5048320;28;19913;-78
2021/09/24 03:00:30;;;;;;;;;;;;;;;-142.75;100.00;76889.19;5032549;28;19920;-78
2021/09/24 03:02:55;;;;;;;;;;;;;;;-142.75;100.00;76881.31;5032634;28;19952;-77
2021/09/24 03:05:21;;;;;;;;;;;;;;;-142.75;100.00;76871.47;5049697;28;19913;-77
2021/09/24 03:07:46;;;;;;;;;;;;;;;-142.75;100.00;76869.50;5034463;28;19960;-77
2021/09/24 03:10:11;;;;;;;;;;;;;;;-142.75;100.00;76873.44;5012648;28;20591;-77
2021/09/24 03:12:37;;;;;;;;;;;;;;;-142.75;100.00;76865.56;5030081;28;19913;-78
2021/09/24 03:15:02;;;;;;;;;;;;;;;-142.75;100.00;76859.66;5036591;28;19913;-77
2021/09/24 03:17:27;;;;;;;;;;;;;;;-142.75;100.00;76851.78;5049753;28;19927;-77
2021/09/24 03:19:52;;;;;;;;;;;;;;;-142.75;100.00;76839.97;5031767;28;19913;-76
2021/09/24 03:22:18;;;;;;;;;;;;;;;-142.75;100.00;76836.03;5049002;28;20282;-77
2021/09/24 03:24:43;;;;;;;;;;;;;;;-142.75;100.00;76845.88;5026855;28;19959;-77
2021/09/24 03:27:08;;;;;;;;;;;;;;;-142.75;100.00;76838.00;5029824;28;19966;-76
2021/09/24 03:29:34;;;;;;;;;;;;;;;-142.75;100.00;76834.06;5012829;28;19917;-76
2021/09/24 03:31:59;;;;;;;;;;;;;;;-142.75;100.00;76814.38;5011886;28;19917;-78
2021/09/24 03:34:24;;;;;;;;;;;;;;;-142.75;100.00;76808.50;5011735;28;19967;-77
2021/09/24 03:36:50;;;;;;;;;;;;;;;-142.75;100.00;76798.66;5034900;28;20366;-77
2021/09/24 03:39:15;;;;;;;;;;;;;;;-142.75;100.00;76790.78;5049505;28;19924;-77
2021/09/24 03:41:41;;;;;;;;;;;;;;;-142.75;100.00;76784.88;5049643;28;19920;-77
2021/09/24 03:44:06;;;;;;;;;;;;;;;-142.75;100.00;76778.97;5031166;28;19940;-78
2021/09/24 03:46:32;;;;;;;;;;;;;;;-142.75;100.00;76778.97;5031489;28;19912;-76
2021/09/24 03:48:57;;;;;;;;;;;;;;;-142.75;100.00;76782.91;5049188;28;19917;-76
2021/09/24 03:51:22;;;;;;;;;;;;;;;-142.75;100.00;76759.28;5049004;28;20013;-78
2021/09/24 03:53:47;;;;;;;;;;;;;;;-142.75;100.00;76751.41;5049083;28;20388;-78
2021/09/24 03:56:12;;;;;;;;;;;;;;;-142.75;100.00;76751.41;5031367;28;19913;-77
2021/09/24 03:58:38;;;;;;;;;;;;;;;-142.75;100.00;76751.41;5049562;28;19913;-77
2021/09/24 04:01:03;;;;;;;;;;;;;;;-142.75;100.00;76759.28;5049469;28;19927;-76
2021/09/24 04:03:28;;;;;;;;;;;;;;;-142.75;100.00;76755.34;5049169;28;19913;-77
2021/09/24 04:05:54;;;;;;;;;;;;;;;-142.75;100.00;76753.38;5020832;28;19948;-77
2021/09/24 04:08:19;;;;;;;;;;;;;;;-142.75;100.00;76751.41;5029231;28;19917;-77
2021/09/24 04:10:44;;;;;;;;;;;;;;;-142.75;100.00;76743.53;5029338;28;19941;-77
2021/09/24 04:13:09;;;;;;;;;;;;;;;-142.75;100.00;76749.44;5033938;28;19913;-78
2021/09/24 04:15:35;;;;;;;;;;;;;;;-142.75;100.00;76743.53;5035632;28;19913;-77
2021/09/24 04:18:00;;;;;;;;;;;;;;;-142.75;100.00;76737.63;5035935;28;20449;-75
2021/09/24 04:20:25;;;;;;;;;;;;;;;-142.75;100.00;76731.72;5040778;28;19917;-78
2021/09/24 04:22:50;;;;;;;;;;;;;;;-142.75;100.00;76731.72;5055879;28;19912;-77
2021/09/24 04:25:16;;;;;;;;;;;;;;;-142.75;100.00;76737.63;5037915;28;19973;-79
2021/09/24 04:27:41;;;;;;;;;;;;;;;-142.75;100.00;76731.72;5038434;28;19921;-76
2021/09/24 04:30:08;;;;;;;;;;;;;;;-142.75;100.00;76731.72;5038315;28;20004;-77
2021/09/24 04:32:34;;;;;;;;;;;;;;;-142.75;100.00;76741.56;5019897;28;19928;-76
2021/09/24 04:34:59;;;;;;;;;;;;;;;-142.75;100.00;76729.75;5039895;28;19913;-76
2021/09/24 04:39:51;;;;;;;;;;;;;;;-142.75;100.00;76727.78;5059233;22;19999;-75
2021/09/24 04:42:16;;;;;;;;;;;;;;;-142.75;100.00;76727.78;5055687;28;20376;-75
2021/09/24 04:44:42;;;;;;;;;;;;;;;-142.75;100.00;76731.72;5039179;28;20588;-75
2021/09/24 04:47:07;;;;;;;;;;;;;;;-142.75;100.00;76723.84;5057416;28;19927;-76
2021/09/24 04:49:32;;;;;;;;;;;;;;;-142.75;100.00;76721.88;5057342;28;19923;-75
2021/09/24 04:51:58;;;;;;;;;;;;;;;-142.75;100.00;76721.88;5057002;28;19963;-76
2021/09/24 04:54:23;;;;;;;;;;;;;;;-142.75;100.00;76721.88;5057075;28;20340;-75
2021/09/24 04:56:48;;;;;;;;;;;;;;;-142.75;100.00;76723.84;5035069;28;20370;-76
2021/09/24 04:59:13;;;;;;;;;;;;;;;-142.75;100.00;76717.94;5037306;28;19975;-76
2021/09/24 05:01:38;;;;;;;;;;;;;;;-142.75;100.00;76715.97;5037219;28;19912;-76
2021/09/24 05:04:04;;;;;;;;;;;;;;;-142.75;100.00;76715.97;5037074;28;20454;-76
2021/09/24 05:06:29;;;;;;;;;;;;;;;-142.75;100.00;76714.00;5037147;28;19982;-76
2021/09/24 05:08:54;;;;;;;;;;;;;;;-142.75;100.00;76715.97;5037117;28;19970;-76
2021/09/24 05:11:19;;;;;;;;;;;;;;;-142.75;100.00;76700.22;5037168;28;19979;-76
2021/09/24 05:13:44;;;;;;;;;;;;;;;-142.75;100.00;76692.34;5019340;28;19913;-75
2021/09/24 05:16:11;;;;;;;;;;;;;;;-142.75;100.00;76702.19;5019408;28;19912;-75
2021/09/24 05:18:38;;;;;;;;;;;;;;;-142.75;100.00;76702.19;5037100;28;19920;-76
2021/09/24 05:21:03;;;;;;;;;;;;;;;-142.75;100.00;76690.38;5019426;28;19936;-76
2021/09/24 05:23:29;;;;;;;;;;;;;;;-142.75;100.00;76688.41;5036193;28;19912;-76
2021/09/24 05:25:54;;;;;;;;;;;;;;;-142.75;100.00;76690.38;5033614;28;20367;-76
2021/09/24 05:28:20;;;;;;;;;;;;;;;-142.75;100.00;76684.47;5033786;28;19927;-75
2021/09/24 05:30:45;;;;;;;;;;;;;;;-142.75;100.00;76692.34;5016303;28;19913;-75
2021/09/24 05:33:10;;;;;;;;;;;;;;;-142.75;100.00;76686.44;5033947;28;19919;-75
2021/09/24 05:35:35;;;;;;;;;;;;;;;-142.75;100.00;76688.41;5015805;28;20365;-76
2021/09/24 05:38:00;;;;;;;;;;;;;;;-142.75;100.00;76696.28;5033564;28;20306;-75
2021/09/24 05:40:26;;;;;;;;;;;;;;;-142.75;100.00;76698.25;5033741;28;19992;-76
2021/09/24 05:42:51;;;;;;;;;;;;;;;-142.75;100.00;76696.28;5033816;28;20514;-75
2021/09/24 05:45:17;;;;;;;;;;;;;;;-142.75;100.00;76698.25;5033414;28;19927;-76
2021/09/24 05:47:43;;;;;;;;;;;;;;;-142.75;100.00;76698.25;5033567;28;19939;-76
2021/09/24 05:50:14;;;;;;;;;;;;;;;-142.75;100.00;76700.22;5033599;28;20014;-74
2021/09/24 05:52:44;;;;;;;;;;;;;;;-142.75;100.00;76700.22;5033553;28;19913;-76
2021/09/24 05:55:09;;;;;;;;;;;;;;;-142.75;100.00;76702.19;5015433;28;19943;-76
2021/09/24 05:57:34;;;;;;;;;;;;;;;-142.75;100.00;76706.13;5015725;28;20379;-75
2021/09/24 06:00:00;;;;;;;;;;;;;;;-142.75;100.00;76698.25;5015675;28;20022;-76
2021/09/24 06:02:25;;;;;;;;;;;;;;;-142.75;100.00;76692.34;5033376;28;19959;-75
2021/09/24 06:04:50;;;;;;;;;;;;;;;-142.75;100.00;76686.44;5033025;28;19913;-76
2021/09/24 06:07:15;;;;;;;;;;;;;;;-142.75;100.00;76676.59;5015577;28;19913;-76
2021/09/24 06:09:40;;;;;;;;;;;;;;;-142.75;100.00;76674.63;5033083;28;19943;-76
2021/09/24 06:12:06;;;;;;;;;;;;;;;-142.75;100.00;76670.69;5033138;28;19931;-75
2021/09/24 06:14:31;;;;;;;;;;;;;;;-142.75;100.00;76678.56;5015062;28;19913;-75
2021/09/24 06:16:56;;;;;;;;;;;;;;;-142.75;100.00;76678.56;5033136;28;19999;-76
2021/09/24 06:19:21;;;;;;;;;;;;;;;-142.75;100.00;76664.78;5032962;28;20377;-75
2021/09/24 06:21:46;;;;;;;;;;;;;;;-142.75;100.00;76660.84;5033118;28;19913;-74
2021/09/24 06:24:12;;;;;;;;;;;;;;;-142.75;100.00;76664.78;5032695;28;19909;-76
2021/09/24 06:26:37;;;;;;;;;;;;;;;-142.75;100.00;76652.97;5033288;28;19916;-75
2021/09/24 06:29:02;;;;;;;;;;;;;;;-142.75;100.00;76660.84;5032999;28;19925;-76
2021/09/24 06:31:28;;;;;;;;;;;;;;;-142.75;100.00;76662.81;5032969;28;19999;-76
2021/09/24 06:33:53;;;;;;;;;;;;;;;-142.75;100.00;76652.97;5014637;28;20274;-74
2021/09/24 06:36:19;;;;;;;;;;;;;;;-142.75;100.00;76651.00;5014859;28;20267;-75
2021/09/24 06:38:45;;;;;;;;;;;;;;;-142.75;100.00;76645.09;5014911;28;19909;-75
2021/09/24 06:41:11;;;;;;;;;;;;;;;-142.75;100.00;76654.94;5032779;28;19963;-76
2021/09/24 06:43:36;;;;;;;;;;;;;;;-142.75;100.00;76654.94;5014794;28;19915;-75
2021/09/24 06:46:01;;;;;;;;;;;;;;;-142.75;100.00;76641.16;5032312;28;19909;-76
2021/09/24 06:48:27;;;;;;;;;;;;;;;-142.75;100.00;76651.00;5032259;28;19913;-75
2021/09/24 06:50:52;;;;;;;;;;;;;;;-142.75;100.00;76651.00;5014894;28;19917;-76
2021/09/24 06:53:17;;;;;;;;;;;;;;;-142.75;100.00;76627.38;5032553;28;19909;-76
2021/09/24 06:55:42;;;;;;;;;;;;;;;-142.75;100.00;76625.41;5032300;28;20000;-75
2021/09/24 06:58:07;;;;;;;;;;;;;;;-142.75;100.00;76599.81;5032304;28;20000;-75
2021/09/24 07:00:32;;;;;;;;;;;;;;;-142.75;100.00;76595.88;5032431;28;20358;-75
2021/09/24 07:02:58;;;;;;;;;;;;;;;-142.75;100.00;76582.09;5032313;28;20390;-75
2021/09/24 07:05:23;;;;;;;;;;;;;;;-142.75;100.00;76580.13;5031878;28;19952;-75
2021/09/24 07:07:49;;;;;;;;;;;;;;;-142.75;100.00;76570.28;5014722;28;19932;-75
2021/09/24 07:10:14;;;;;;;;;;;;;;;-142.75;100.00;76560.44;5014358;28;19909;-75
2021/09/24 07:12:41;;;;;;;;;;;;;;;-142.75;100.00;76558.47;5032085;28;20322;-76
2021/09/24 07:15:07;;;;;;;;;;;;;;;-142.75;100.00;76534.84;5014148;28;20385;-75
2021/09/24 07:17:32;;;;;;;;;;;;;;;-142.75;100.00;76519.13;5014460;28;19909;-75
2021/09/24 07:19:57;;;;;;;;;;;;;;;-142.75;100.00;76507.31;5031870;28;19920;-75
2021/09/24 07:22:23;;;;;;;;;;;;;;;-142.75;100.00;76497.47;5015126;28;19916;-77
2021/09/24 07:24:49;;;;;;;;;;;;;;;-142.75;100.00;76487.63;5014087;28;19909;-75
2021/09/24 07:27:14;;;;;;;;;;;;;;;-142.75;100.00;76483.69;5014372;28;19916;-76
2021/09/24 07:29:40;;;;;;;;;;;;;;;-142.75;100.00;76483.69;5031734;28;19968;-75
2021/09/24 07:32:05;;;;;;;;;;;;;;;-142.75;100.00;76477.78;5031727;28;19909;-76
2021/09/24 07:34:30;;;;;;;;;;;;;;;-142.75;100.00;76458.09;5013565;28;19971;-76
2021/09/24 07:36:56;;;;;;;;;;;;;;;-142.75;100.00;76444.31;5031296;28;19936;-76
2021/09/24 07:39:21;;;;;;;;;;;;;;;-142.75;100.00;76428.56;5031413;28;20372;-75
2021/09/24 07:41:46;;;;;;;;;;;;;;;-142.75;100.00;76418.72;5013757;28;19909;-76
2021/09/24 07:44:11;;;;;;;;;;;;;;;-142.75;100.00;76393.13;5013502;28;19954;-76
2021/09/24 07:46:37;;;;;;;;;;;;;;;-142.75;100.00;76381.31;5013402;28;19921;-75
2021/09/24 07:49:03;;;;;;;;;;;;;;;-142.75;99.83;76369.50;5030852;28;19913;-76
2021/09/24 07:51:28;;;;;;;;;;;;;;;-142.75;97.73;76369.50;5031439;28;19908;-75
2021/09/24 07:53:53;;;;;;;;;;;;;;;-142.75;97.13;76365.56;5031068;28;20262;-76
2021/09/24 07:56:19;;;;;;;;;;;;;;;-142.75;96.54;76349.81;5031371;28;20087;-76
2021/09/24 07:58:44;;;;;;;;;;;;;;;-142.75;96.27;76343.94;5031532;28;19913;-76
2021/09/24 08:01:09;;;;;;;;;;;;;;;-142.75;96.26;76328.19;5031166;28;19920;-74
2021/09/24 08:03:35;;;;;;;;;;;;;;;-142.75;96.03;76318.34;5030593;28;19916;-76
2021/09/24 08:06:00;;;;;;;;;;;;;;;-142.75;94.63;76306.53;5029966;28;20449;-75
2021/09/24 08:08:26;;;;;;;;;;;;;;;-142.75;91.63;76302.59;5030148;28;19975;-75
2021/09/24 08:10:51;;;;;;;;;;;;;;;-142.75;90.74;76310.47;5012333;28;19913;-74
2021/09/24 08:13:16;;;;;;;;;;;;;;;-142.75;93.10;76298.66;5030154;28;20496;-74
2021/09/24 08:15:43;;;;;;;;;;;;;;;-142.75;91.79;76219.91;5029963;28;19963;-74
2021/09/24 08:18:09;;;;;;;;;;;;;;;-142.75;86.74;76139.22;5012192;28;19920;-75
2021/09/24 08:20:34;;;;;;;;;;;;;;;-142.75;81.84;76086.06;5029755;28;19920;-75
2021/09/24 08:22:59;;;;;;;;;;;;;;;-142.75;78.81;76088.03;5030160;28;20367;-76
2021/09/24 08:25:25;;;;;;;;;;;;;;;-142.75;78.70;76034.91;5029650;28;19987;-74
2021/09/24 08:27:50;;;;;;;;;;;;;;;-142.75;76.59;76032.94;5029907;28;19917;-75
2021/09/24 08:30:16;;;;;;;;;;;;;;;-142.75;75.11;75946.34;5012316;28;19921;-75
2021/09/24 08:32:42;;;;;;;;;;;;;;;-142.75;73.19;75863.66;5029860;28;19920;-76
2021/09/24 08:35:09;;;;;;;;;;;;;;;-142.75;67.51;75747.56;5029627;28;20401;-76
2021/09/24 08:37:34;;;;;;;;;;;;;;;-142.75;64.10;75627.50;5029674;28;19917;-74
2021/09/24 08:39:59;;;;;;;;;;;;;;;-142.75;60.53;75517.28;5029909;28;19928;-75
2021/09/24 08:42:27;;;;;;;;;;;;;;;-142.75;59.41;75446.44;5030283;28;19983;-75
2021/09/24 08:44:53;;;;;;;;;;;;;;;-142.75;55.47;75324.44;5029494;28;19928;-76
2021/09/24 08:47:18;;;;;;;;;;;;;;;-142.75;52.62;75342.16;5029737;28;19913;-75
2021/09/24 08:49:44;;;;;;;;;;;;;;;-142.75;53.05;75379.53;5011964;28;21493;-75
2021/09/24 08:52:09;;;;;;;;;;;;;;;-142.75;53.06;75424.81;5029873;28;19928;-76
2021/09/24 08:54:35;;;;;;;;;;;;;;;-142.75;54.60;75525.16;5029539;28;19913;-75
2021/09/24 08:57:01;;;;;;;;;;;;;;;-142.75;57.26;75570.44;5018872;28;20007;-75
2021/09/24 08:59:26;;;;;;;;;;;;;;;-142.75;57.13;75562.56;5050736;28;20390;-75
2021/09/24 09:02:01;;;;;;;;;;;;;;;-142.75;56.30;75452.34;5053133;28;19971;-75
2021/09/24 09:04:32;;;;;;;;;;;;;;;-142.75;55.20;75468.09;5017442;28;19941;-73
2021/09/24 09:07:08;;;;;;;;;;;;;;;-142.75;56.91;75424.81;5033280;28;20389;-72
2021/09/24 09:09:35;;;;;;;;;;;;;;;-142.75;53.94;75275.25;5015273;28;20706;-73
2021/09/24 09:12:17;;;;;;;;;;;;;;;-142.75;52.11;75186.69;5033184;28;19917;-73
2021/09/24 09:14:55;;;;;;;;;;;;;;;-142.75;48.80;75161.13;5032995;28;19939;-73
2021/09/24 09:17:26;;;;;;;;;;;;;;;-142.75;50.73;75302.78;5035325;28;19917;-73
2021/09/24 09:20:06;;;;;;;;;;;;;;;-142.75;48.74;75346.09;5035127;28;20342;-73
2021/09/24 09:22:32;;;;;;;;;;;;;;;-142.75;50.29;75249.66;5035175;28;20376;-73
2021/09/24 09:24:57;;;;;;;;;;;;;;;-142.75;49.79;75149.31;5052566;28;19913;-73
2021/09/24 09:27:22;;;;;;;;;;;;;;;-142.75;47.24;75045.00;5041621;28;19913;-73
2021/09/24 09:30:11;;;;;;;;;;;;;;;-142.75;45.64;75011.56;5031431;28;20063;-73
2021/09/24 09:32:40;;;;;;;;;;;;;;;-142.75;44.83;75109.94;5032791;28;19948;-73
2021/09/24 09:35:06;;;;;;;;;;;;;;;-142.75;46.38;75247.69;5032627;28;19913;-73
2021/09/24 09:37:34;;;;;;;;;;;;;;;-142.75;49.54;75407.09;5032568;28;19967;-73
2021/09/24 09:40:11;;;;;;;;;;;;;;;-142.75;52.48;75536.97;5015177;28;20158;-74
2021/09/24 09:42:38;;;;;;;;;;;;;;;-142.75;55.22;75633.41;5032698;28;19963;-73
2021/09/24 09:45:05;;;;;;;;;;;;;;;-142.75;58.05;75708.19;5032506;28;19912;-72
2021/09/24 09:47:32;;;;;;;;;;;;;;;-142.75;60.31;75710.16;5032213;28;19921;-74
2021/09/24 09:50:12;;;;;;;;;;;;;;;-142.75;58.34;75664.91;5032440;28;19932;-72
2021/09/24 09:52:56;;;;;;;;;;;;;;;-142.75;58.22;75696.38;5014706;28;19917;-73
2021/09/24 09:55:22;;;;;;;;;;;;;;;-142.75;60.74;75767.22;5032265;28;19912;-73
2021/09/24 09:57:52;;;;;;;;;;;;;;;-142.75;60.47;75755.44;5032493;28;19920;-73
2021/09/24 10:00:18;;;;;;;;;;;;;;;-142.75;61.20;75763.28;5014571;28;19963;-72
2021/09/24 10:02:43;;;;;;;;;;;;;;;-142.75;61.01;75775.09;5014521;28;19920;-72
2021/09/24 10:05:08;;;;;;;;;;;;;;;-142.75;62.48;75763.28;5032105;28;19921;-72
2021/09/24 10:07:38;;;;;;;;;;;;;;;-142.75;63.78;75704.25;5032128;28;19924;-72
2021/09/24 10:10:05;;;;;;;;;;;;;;;-142.75;59.51;75655.06;5031707;28;20349;-72
2021/09/24 10:12:31;;;;;;;;;;;;;;;-142.75;59.77;75666.88;5032307;28;19920;-73
2021/09/24 10:14:56;;;;;;;;;;;;;;;-142.75;60.38;75613.72;5031807;28;19917;-72
2021/09/24 10:17:22;;;;;;;;;;;;;;;-142.75;56.47;75474.00;5031966;28;20032;-73
2021/09/24 10:19:47;;;;;;;;;;;;;;;-142.75;53.69;75442.50;5032205;28;19913;-74
2021/09/24 10:22:13;;;;;;;;;;;;;;;-142.75;53.34;75302.78;5014326;28;19920;-73
2021/09/24 10:24:39;;;;;;;;;;;;;;;-142.75;50.94;75188.66;5031685;28;19913;-73
2021/09/24 10:27:06;;;;;;;;;;;;;;;-142.75;47.78;75123.72;5032089;28;19928;-72
2021/09/24 10:29:33;;;;;;;;;;;;;;;-142.75;47.17;75021.41;5031518;28;19940;-73
2021/09/24 10:32:19;;;;;;;;;;;;;;;-142.75;47.24;75109.94;5013880;28;19925;-73
2021/09/24 10:35:05;;;;;;;;;;;;;;;-142.75;45.81;75033.22;5031618;28;19920;-72
2021/09/24 10:37:31;;;;;;;;;;;;;;;-142.75;43.37;74978.13;5003220;28;20315;-73
2021/09/24 10:39:59;;;;;;;;;;;;;;;-142.75;43.95;75015.50;5031562;28;20378;-71
2021/09/24 10:42:24;;;;;;;;;;;;;;;-142.75;43.53;75015.50;5031669;28;20412;-73
2021/09/24 10:45:08;;;;;;;;;;;;;;;-142.75;41.62;74919.09;5031249;28;20012;-74
2021/09/24 10:47:44;;;;;;;;;;;;;;;-142.75;39.50;74867.91;5031383;28;20267;-74
2021/09/24 10:50:28;;;;;;;;;;;;;;;-142.75;38.36;74814.78;5013737;28;19924;-74
2021/09/24 10:53:17;;;;;;;;;;;;;;;-142.75;37.58;74881.69;5031916;28;19913;-73
2021/09/24 10:55:44;;;;;;;;;;;;;;;-142.75;38.24;74974.19;5038188;28;19920;-72
2021/09/24 10:58:33;;;;;;;;;;;;;;;-142.75;38.80;75080.44;5047844;28;21384;-73
2021/09/24 11:00:59;;;;;;;;;;;;;;;-142.75;41.16;75090.28;5037874;28;19916;-72
2021/09/24 11:03:26;;;;;;;;;;;;;;;-142.75;42.54;75054.84;5049798;28;19917;-73
2021/09/24 11:06:03;;;;;;;;;;;;;;;-142.75;40.64;74964.34;5035054;28;19995;-72
2021/09/24 11:08:28;;;;;;;;;;;;;;;-142.75;39.87;74879.72;5035362;28;19932;-73
2021/09/24 11:11:03;;;;;;;;;;;;;;;-142.75;38.78;74915.16;5041777;28;20309;-74
2021/09/24 11:13:29;;;;;;;;;;;;;;;-142.75;39.26;74897.44;5046961;28;19920;-73
2021/09/24 11:16:02;;;;;;;;;;;;;;;-142.75;38.91;74783.31;5041012;28;19919;-72
2021/09/24 11:18:49;;;;;;;;;;;;;;;-142.75;37.43;74777.41;5030250;28;19917;-74
2021/09/24 11:21:18;;;;;;;;;;;;;;;-142.75;38.51;74954.50;5031510;28;19913;-73
2021/09/24 11:23:44;;;;;;;;;;;;;;;-142.75;39.28;75084.38;5036958;28;20297;-72
2021/09/24 11:26:10;;;;;;;;;;;;;;;-142.75;41.92;75206.38;5038602;28;19923;-73
2021/09/24 11:28:35;;;;;;;;;;;;;;;-142.75;43.59;75361.84;5032470;28;19916;-71
2021/09/24 11:31:00;;;;;;;;;;;;;;;-142.75;46.25;75464.16;5050875;28;20404;-73
2021/09/24 11:33:40;;;;;;;;;;;;;;;-142.75;47.63;75538.94;5032617;28;19917;-71
2021/09/24 11:36:05;;;;;;;;;;;;;;;-142.75;50.53;75621.59;5031458;28;19919;-72
2021/09/24 11:38:30;;;;;;;;;;;;;;;-142.75;52.13;75659.00;5030182;28;20282;-72
2021/09/24 11:40:57;;;;;;;;;;;;;;;-142.75;53.08;75680.63;5030458;28;19924;-75
2021/09/24 11:43:26;;;;;;;;;;;;;;;-142.75;54.63;75700.31;5030903;28;20329;-75
2021/09/24 11:45:52;;;;;;;;;;;;;;;-142.75;54.54;75692.44;5033883;28;19963;-74
2021/09/24 11:48:26;;;;;;;;;;;;;;;-142.75;54.89;75706.22;5050318;28;20406;-75
2021/09/24 11:50:51;;;;;;;;;;;;;;;-142.75;54.10;75708.19;5050426;28;19917;-75
2021/09/24 11:53:16;;;;;;;;;;;;;;;-142.75;53.82;75690.47;5050281;28;20298;-74
2021/09/24 11:55:45;;;;;;;;;;;;;;;-142.75;53.48;75662.94;5032429;28;20029;-75
2021/09/24 11:58:11;;;;;;;;;;;;;;;-142.75;52.56;75621.59;5049231;28;19920;-75
2021/09/24 12:00:40;;;;;;;;;;;;;;;-142.75;50.59;75601.91;5037779;28;20305;-76
2021/09/24 12:03:20;;;;;;;;;;;;;;;-142.75;50.30;75653.09;5050042;28;20011;-75
2021/09/24 12:06:02;;;;;;;;;;;;;;;-142.75;50.24;75680.63;5049539;28;19924;-75
2021/09/24 12:08:53;;;;;;;;;;;;;;;-142.75;50.20;75664.91;5050125;28;19921;-75
2021/09/24 12:11:23;;;;;;;;;;;;;;;-142.75;50.23;75660.97;5027831;28;20344;-75
2021/09/24 12:13:52;;;;;;;;;;;;;;;-142.75;51.08;75688.50;5035166;28;19924;-75
2021/09/24 12:16:19;;;;;;;;;;;;;;;-142.75;50.39;75686.53;5033621;28;19912;-75
2021/09/24 12:18:47;;;;;;;;;;;;;;;-142.75;50.55;75700.31;5032144;28;19927;-75
2021/09/24 12:21:13;;;;;;;;;;;;;;;-142.75;50.58;75694.41;5050171;28;19916;-75